Marina — SXJE — position and weather

sailwx.info

Track history (hours):
 
Tides and Currents Weather Stations Pressure Air Temp Water Temp Dewpoint Dewpoint Depression Visibility Wind Speed Wind Dir Waves Ship Positions

Marina

Last reported at 2014-Aug-16 01:21 UTC. Time now 2014-Aug-29 18:24 UTC.
Position N 33°39' W 009°20'.
Warning: this ship's position is 13 days out of date.

Length 225 m; draft 5.7 m.

Type: Cargo ship. MMSI: 239651000.

Date/timePositionNaut miles runAvg speedWind from/ knotsBaromVisibWave heightAir tempDewpointWater temp
2014-Aug-16 01:21N 33°39' W 009°20'3512.0
2014-Aug-15 22:23N 34°03' W 008°48'1112.2
2014-Aug-15 21:27N 34°10' W 008°38'1112.2
2014-Aug-15 20:33N 34°18' W 008°28'18711.6
2014-Aug-15 04:28N 36°02' W 005°19'57913.4
2014-Aug-13 09:24N 38°11' E 006°29'2913.7
2014-Aug-13 07:17N 38°18' E 007°05'1013.4
2014-Aug-13 06:33N 38°20' E 007°17'3213.7
2014-Aug-13 04:15N 38°28' E 007°56'1413.9
2014-Aug-13 03:15N 38°31' E 008°13'1014.0
2014-Aug-13 02:33N 38°34' E 008°25'1413.7
2014-Aug-13 01:32N 38°37' E 008°42'1413.9
2014-Aug-13 00:33N 38°41' E 008°59'1413.6
2014-Aug-12 23:33N 38°47' E 009°15'1413.8
2014-Aug-12 22:32N 38°52' E 009°32'1513.0
2014-Aug-12 21:24N 39°03' E 009°43'1213.6
2014-Aug-12 20:33N 39°13' E 009°51'6913.5
2014-Aug-12 15:28N 40°15' E 010°30'2813.9
2014-Aug-12 13:29N 40°40' E 010°47'98 2.3
2014-Aug-10 19:27N 42°07' E 011°45'0 0.0
2014-Aug-10 10:21N 42°07' E 011°45'  
2014-Aug-07 19:33N 41°46' E 011°31'1512.4
2014-Aug-07 18:18N 41°32' E 011°21'912.5
2014-Aug-07 17:33N 41°24' E 011°16'1312.4
2014-Aug-07 16:32N 41°13' E 011°08'1312.3
2014-Aug-07 15:29N 41°01' E 011°01'1312.6
2014-Aug-07 14:25N 40°49' E 010°53'2312.4
2014-Aug-07 12:32N 40°28' E 010°40'6612.5
2014-Aug-07 07:14N 39°28' E 010°02'812.3
2014-Aug-07 06:33N 39°21' E 009°57'1612.4
2014-Aug-07 05:17N 39°07' E 009°48'2211.4
2014-Aug-07 03:19N 38°50' E 009°28'911.3
2014-Aug-07 02:33N 38°47' E 009°18'6211.5
2014-Aug-06 21:12N 38°29' E 008°02'  
Track history (hours):
 
Tides and Currents Weather Stations Pressure Air Temp Water Temp Dewpoint Dewpoint Depression Visibility Wind Speed Wind Dir Waves Ship Positions

Marina

Last reported at 2014-Aug-16 01:21 UTC. Time now 2014-Aug-29 18:24 UTC.
Position N 33°39' W 009°20'.
Warning: this ship's position is 13 days out of date.

Length 225 m; draft 5.7 m.

Type: Cargo ship. MMSI: 239651000.

Date/timePositionNaut miles runAvg speedWind from/ knotsBaromVisibWave heightAir tempDewpointWater temp
2014-Aug-16 01:21N 33°39' W 009°20'3512.0
2014-Aug-15 22:23N 34°03' W 008°48'1112.2
2014-Aug-15 21:27N 34°10' W 008°38'1112.2
2014-Aug-15 20:33N 34°18' W 008°28'18711.6
2014-Aug-15 04:28N 36°02' W 005°19'57913.4
2014-Aug-13 09:24N 38°11' E 006°29'2913.7
2014-Aug-13 07:17N 38°18' E 007°05'1013.4
2014-Aug-13 06:33N 38°20' E 007°17'3213.7
2014-Aug-13 04:15N 38°28' E 007°56'1413.9
2014-Aug-13 03:15N 38°31' E 008°13'1014.0
2014-Aug-13 02:33N 38°34' E 008°25'1413.7
2014-Aug-13 01:32N 38°37' E 008°42'1413.9
2014-Aug-13 00:33N 38°41' E 008°59'1413.6
2014-Aug-12 23:33N 38°47' E 009°15'1413.8
2014-Aug-12 22:32N 38°52' E 009°32'1513.0
2014-Aug-12 21:24N 39°03' E 009°43'1213.6
2014-Aug-12 20:33N 39°13' E 009°51'6913.5
2014-Aug-12 15:28N 40°15' E 010°30'2813.9
2014-Aug-12 13:29N 40°40' E 010°47'98 2.3
2014-Aug-10 19:27N 42°07' E 011°45'0 0.0
2014-Aug-10 10:21N 42°07' E 011°45'  
2014-Aug-07 19:33N 41°46' E 011°31'1512.4
2014-Aug-07 18:18N 41°32' E 011°21'912.5
2014-Aug-07 17:33N 41°24' E 011°16'1312.4
2014-Aug-07 16:32N 41°13' E 011°08'1312.3
2014-Aug-07 15:29N 41°01' E 011°01'1312.6
2014-Aug-07 14:25N 40°49' E 010°53'2312.4
2014-Aug-07 12:32N 40°28' E 010°40'6612.5
2014-Aug-07 07:14N 39°28' E 010°02'812.3
2014-Aug-07 06:33N 39°21' E 009°57'1612.4
2014-Aug-07 05:17N 39°07' E 009°48'2211.4
2014-Aug-07 03:19N 38°50' E 009°28'911.3
2014-Aug-07 02:33N 38°47' E 009°18'6211.5
2014-Aug-06 21:12N 38°29' E 008°02'  

Dump ship's entire track history